createdAt,value
2018-07-03T00:00:39.170Z,32.2
2018-07-03T00:01:41.356Z,32.2
2018-07-03T00:02:43.798Z,32.4
2018-07-03T00:03:45.716Z,32.3
2018-07-03T00:04:48.167Z,32.5
2018-07-03T00:05:50.618Z,32.2
2018-07-03T00:06:52.788Z,32.3
2018-07-03T00:07:55.242Z,32.2
2018-07-03T00:08:57.677Z,32.3
2018-07-03T00:10:00.134Z,32.3
2018-07-03T00:11:02.585Z,32.1
2018-07-03T00:12:04.727Z,32.2
2018-07-03T00:13:06.898Z,32.2
2018-07-03T00:14:09.079Z,32.3
2018-07-03T00:15:11.537Z,32.3
2018-07-03T00:16:13.141Z,32.3
2018-07-03T00:17:15.586Z,32.3
2018-07-03T00:18:17.497Z,32.2
2018-07-03T00:19:19.939Z,32.1
2018-07-03T00:20:22.126Z,32.4
2018-07-03T00:21:24.279Z,32.2
2018-07-03T00:22:26.449Z,32.3
2018-07-03T00:23:28.622Z,32.4
2018-07-03T00:24:31.069Z,32.3
2018-07-03T00:25:33.528Z,32.3
2018-07-03T00:26:35.702Z,32.4
2018-07-03T00:27:37.852Z,32.3
2018-07-03T00:28:40.036Z,32.3
2018-07-03T00:29:42.483Z,32.4
2018-07-03T00:30:44.929Z,32.3
2018-07-03T00:31:46.847Z,32.2
2018-07-03T00:32:48.754Z,32.4
2018-07-03T00:33:51.199Z,32.2
2018-07-03T00:34:52.804Z,32.4
2018-07-03T00:35:54.701Z,32.3
2018-07-03T00:36:57.148Z,32.4
2018-07-03T00:37:59.599Z,32.4
2018-07-03T00:39:02.048Z,32.2
2018-07-03T00:40:04.235Z,32.4
2018-07-03T00:41:06.136Z,32.4
2018-07-03T00:42:08.049Z,32.3
2018-07-03T00:43:10.208Z,32.4
2018-07-03T00:44:12.129Z,32.3
2018-07-03T00:45:14.589Z,32.3
2018-07-03T00:46:16.772Z,32.3
2018-07-03T00:47:19.220Z,32.4
2018-07-03T00:48:21.390Z,32.3
2018-07-03T00:49:23.008Z,32.4
2018-07-03T00:50:25.199Z,32.4
2018-07-03T00:51:27.650Z,32.3
2018-07-03T00:52:29.820Z,32.3
2018-07-03T00:53:32.279Z,32.4
2018-07-03T00:54:34.477Z,32.4
2018-07-03T00:55:36.933Z,32.4
2018-07-03T00:56:39.117Z,32.3
2018-07-03T00:57:40.989Z,32.4
2018-07-03T00:58:43.163Z,32.4
2018-07-03T00:59:45.610Z,32.3
2018-07-03T01:00:47.781Z,32.2
2018-07-03T01:01:50.227Z,32.3
2018-07-03T01:02:52.679Z,32.3
2018-07-03T01:03:54.619Z,32.3
2018-07-03T01:04:57.068Z,32.4
2018-07-03T01:05:58.958Z,32.2
2018-07-03T01:07:01.426Z,32.3
2018-07-03T01:08:03.598Z,32.4
2018-07-03T01:09:05.769Z,32.3
2018-07-03T01:10:07.662Z,32.3
2018-07-03T01:11:10.105Z,32.4
2018-07-03T01:12:12.562Z,32.5
2018-07-03T01:13:15.020Z,32.3
2018-07-03T01:14:16.938Z,32.4
2018-07-03T01:15:19.402Z,32.4
2018-07-03T01:16:21.626Z,32.2
2018-07-03T01:17:23.540Z,32.4
2018-07-03T01:18:25.165Z,32.2
2018-07-03T01:19:27.621Z,32.4
2018-07-03T01:20:29.528Z,32.3
2018-07-03T01:21:31.701Z,32.5
2018-07-03T01:22:34.149Z,32.3
2018-07-03T01:23:36.609Z,32.3
2018-07-03T01:24:38.783Z,32.5
2018-07-03T01:25:40.944Z,32.4
2018-07-03T01:26:43.390Z,32.3
2018-07-03T01:27:45.578Z,32.3
2018-07-03T01:28:47.477Z,32.3
2018-07-03T01:29:49.927Z,32.3
2018-07-03T01:30:52.379Z,32.4
2018-07-03T01:31:54.825Z,32.2
2018-07-03T01:32:57.280Z,32.3
2018-07-03T01:33:59.453Z,32.5
2018-07-03T01:35:01.358Z,32.3
2018-07-03T01:36:03.573Z,32.4
2018-07-03T01:37:05.254Z,32.4
2018-07-03T01:38:07.701Z,32.4
2018-07-03T01:39:09.330Z,32.3
2018-07-03T01:40:11.242Z,32.4
2018-07-03T01:41:12.859Z,32.4
2018-07-03T01:42:15.303Z,32.4
2018-07-03T01:43:17.741Z,32.3
2018-07-03T01:44:19.923Z,32.5
2018-07-03T01:45:22.372Z,32.4
2018-07-03T01:46:24.545Z,32.4
2018-07-03T01:47:26.730Z,32.4
2018-07-03T01:48:28.917Z,32.5
2018-07-03T01:49:31.358Z,32.5
2018-07-03T01:50:33.806Z,32.5
2018-07-03T01:51:35.989Z,32.4
2018-07-03T01:52:37.610Z,32.5
2018-07-03T01:53:39.771Z,32.4
2018-07-03T01:54:41.673Z,32.5
2018-07-03T01:55:43.836Z,32.3
2018-07-03T01:56:45.992Z,32.5
2018-07-03T01:57:48.439Z,32.5
2018-07-03T01:58:50.879Z,32.4
2018-07-03T01:59:53.044Z,32.3
2018-07-03T02:00:55.209Z,32.4
2018-07-03T02:01:57.098Z,32.4
2018-07-03T02:02:59.277Z,32.3
2018-07-03T02:04:01.726Z,32.3
2018-07-03T02:05:03.870Z,32.5
2018-07-03T02:06:06.050Z,32.4
2018-07-03T02:07:08.227Z,32.5
2018-07-03T02:08:10.679Z,32.4
2018-07-03T02:09:13.128Z,32.4
2018-07-03T02:10:15.300Z,32.5
2018-07-03T02:11:17.469Z,32.5
2018-07-03T02:12:19.907Z,32.4
2018-07-03T02:13:21.797Z,32.3
2018-07-03T02:14:24.249Z,32.5
2018-07-03T02:15:26.432Z,32.5
2018-07-03T02:16:28.618Z,32.4
2018-07-03T02:17:31.082Z,32.3
2018-07-03T02:18:33.571Z,32.5
2018-07-03T02:19:36.021Z,32.4
2018-07-03T02:20:37.898Z,32.4
2018-07-03T02:21:40.352Z,32.4
2018-07-03T02:22:42.801Z,32.4
2018-07-03T02:23:45.257Z,32.4
2018-07-03T02:24:47.711Z,32.3
2018-07-03T02:25:50.156Z,32.5
2018-07-03T02:26:52.602Z,32.4
2018-07-03T02:27:54.778Z,32.5
2018-07-03T02:28:56.682Z,32.4
2018-07-03T02:29:59.130Z,32.4
2018-07-03T02:31:01.043Z,32.3
2018-07-03T02:32:03.514Z,32.4
2018-07-03T02:33:05.950Z,32.5
2018-07-03T02:34:07.574Z,32.5
2018-07-03T02:35:09.749Z,32.5
2018-07-03T02:36:12.197Z,32.4
2018-07-03T02:37:14.389Z,32.5
2018-07-03T02:38:16.834Z,32.4
2018-07-03T02:39:19.162Z,32.5
2018-07-03T02:40:21.349Z,32.5
2018-07-03T02:41:23.257Z,32.5
2018-07-03T02:42:25.704Z,32.4
2018-07-03T02:43:27.890Z,32.4
2018-07-03T02:44:29.789Z,32.5
2018-07-03T02:45:32.237Z,32.4
2018-07-03T02:46:34.699Z,32.4
2018-07-03T02:47:36.625Z,32.3
2018-07-03T02:48:38.780Z,32.2
2018-07-03T02:49:41.216Z,32.4
2018-07-03T02:50:42.825Z,32.5
2018-07-03T02:51:45.273Z,32.4
2018-07-03T02:52:47.164Z,32.4
2018-07-03T02:53:49.605Z,32.3
2018-07-03T02:54:51.778Z,32.4
2018-07-03T02:55:54.170Z,32.4
2018-07-03T02:56:56.543Z,32.4
2018-07-03T02:57:58.787Z,32.4
2018-07-03T02:59:01.048Z,32.4
2018-07-03T03:00:03.517Z,32.4
2018-07-03T03:01:05.987Z,32.4
2018-07-03T03:02:08.182Z,32.3
2018-07-03T03:03:10.644Z,32.5
2018-07-03T03:04:12.310Z,32.4
2018-07-03T03:05:14.781Z,32.2
2018-07-03T03:06:17.243Z,32.3
2018-07-03T03:07:19.728Z,32.4
2018-07-03T03:08:21.970Z,32.3
2018-07-03T03:09:24.133Z,32.2
2018-07-03T03:10:26.290Z,32.4
2018-07-03T03:11:28.760Z,32.3
2018-07-03T03:12:30.965Z,32.4
2018-07-03T03:13:33.429Z,32.2
2018-07-03T03:14:35.889Z,32.3
2018-07-03T03:15:38.363Z,32.2
2018-07-03T03:16:40.802Z,32.3
2018-07-03T03:17:42.986Z,32.3
2018-07-03T03:18:45.167Z,32.2
2018-07-03T03:19:47.356Z,32.1
2018-07-03T03:20:49.800Z,32
2018-07-03T03:21:51.973Z,32.3
2018-07-03T03:22:54.408Z,32.2
2018-07-03T03:23:56.584Z,32
2018-07-03T03:24:59.039Z,32.1
2018-07-03T03:26:00.944Z,32.1
2018-07-03T03:27:03.118Z,32.3
2018-07-03T03:28:05.022Z,32.1
2018-07-03T03:29:07.189Z,32
2018-07-03T03:30:09.360Z,32.2
2018-07-03T03:31:11.531Z,32.2
2018-07-03T03:32:13.698Z,32.1
2018-07-03T03:33:15.650Z,32.3
2018-07-03T03:34:17.553Z,32.3
2018-07-03T03:35:19.728Z,32.1
2018-07-03T03:36:21.913Z,32
2018-07-03T03:37:24.378Z,32.1
2018-07-03T03:38:26.564Z,32.2
2018-07-03T03:39:29.018Z,32.2
2018-07-03T03:40:30.950Z,32
2018-07-03T03:41:33.405Z,32.1
2018-07-03T03:42:35.298Z,32.1
2018-07-03T03:43:37.471Z,32.2
2018-07-03T03:44:39.918Z,32.2
2018-07-03T03:45:42.100Z,32.1
2018-07-03T03:46:44.560Z,32.1
2018-07-03T03:47:46.432Z,32.1
2018-07-03T03:48:48.595Z,32.1
2018-07-03T03:49:51.048Z,32.1
2018-07-03T03:50:53.239Z,32.2
2018-07-03T03:51:55.689Z,32.1
2018-07-03T03:52:58.138Z,32.1
2018-07-03T03:54:00.584Z,32.2
2018-07-03T03:55:03.022Z,32.1
2018-07-03T03:56:05.474Z,32
2018-07-03T03:57:07.623Z,32.2
2018-07-03T03:58:10.083Z,32.1
2018-07-03T03:59:12.528Z,32.1
2018-07-03T04:00:14.419Z,32.1
2018-07-03T04:01:16.602Z,32
2018-07-03T04:02:18.769Z,32.1
2018-07-03T04:03:21.216Z,32
2018-07-03T04:04:23.385Z,32.1
2018-07-03T04:05:25.829Z,32.1
2018-07-03T04:06:27.999Z,32.2
2018-07-03T04:07:30.178Z,32
2018-07-03T04:08:32.360Z,32.2
2018-07-03T04:09:34.810Z,32.1
2018-07-03T04:10:36.729Z,32
2018-07-03T04:11:38.902Z,32.1
2018-07-03T04:12:41.091Z,32
2018-07-03T04:13:42.979Z,32.1
2018-07-03T04:14:44.872Z,32
2018-07-03T04:15:47.025Z,32.1
2018-07-03T04:16:49.214Z,32.2
2018-07-03T04:17:51.392Z,32.1
2018-07-03T04:18:53.290Z,32.1
2018-07-03T04:19:55.729Z,32.1
2018-07-03T04:20:58.174Z,32.1
2018-07-03T04:22:00.086Z,32
2018-07-03T04:23:01.989Z,32.1
2018-07-03T04:24:04.440Z,32
2018-07-03T04:25:06.619Z,32.1
2018-07-03T04:26:09.064Z,32.1
2018-07-03T04:27:11.511Z,32.1
2018-07-03T04:28:13.688Z,32
2018-07-03T04:29:16.142Z,32.1
2018-07-03T04:30:18.020Z,32
2018-07-03T04:31:20.201Z,32.2
2018-07-03T04:32:22.664Z,32
2018-07-03T04:33:25.109Z,32
2018-07-03T04:34:27.563Z,32.1
2018-07-03T04:35:29.748Z,31.9
2018-07-03T04:36:31.928Z,32
2018-07-03T04:37:34.115Z,32
2018-07-03T04:38:36.592Z,32
2018-07-03T04:39:39.038Z,32
2018-07-03T04:40:41.192Z,32
2018-07-03T04:41:43.076Z,32.1
2018-07-03T04:42:45.522Z,32.1
2018-07-03T04:43:47.976Z,32.1
2018-07-03T04:44:50.469Z,32
2018-07-03T04:45:52.902Z,32
2018-07-03T04:46:54.801Z,32
2018-07-03T04:47:56.846Z,32
2018-07-03T04:48:59.289Z,32
2018-07-03T04:50:01.469Z,31.9
2018-07-03T04:51:03.659Z,31.9
2018-07-03T04:52:06.122Z,32.1
2018-07-03T04:53:08.028Z,32
2018-07-03T04:54:10.203Z,32
2018-07-03T04:55:12.379Z,32
2018-07-03T04:56:14.833Z,32
2018-07-03T04:57:17.024Z,32
2018-07-03T04:58:19.582Z,32.1
2018-07-03T04:59:21.789Z,32
2018-07-03T05:00:24.271Z,32
2018-07-03T05:01:26.767Z,32
2018-07-03T05:02:28.681Z,31.9
2018-07-03T05:03:30.881Z,31.9
2018-07-03T05:04:32.780Z,32
2018-07-03T05:05:35.237Z,32
2018-07-03T05:06:37.699Z,31.9
2018-07-03T05:07:39.849Z,32
2018-07-03T05:08:42.008Z,31.9
2018-07-03T05:09:44.246Z,32
2018-07-03T05:10:46.688Z,31.9
2018-07-03T05:11:48.867Z,31.9
2018-07-03T05:12:50.245Z,31.9
2018-07-03T05:13:52.698Z,31.9
2018-07-03T05:14:54.869Z,31.9
2018-07-03T05:15:57.311Z,31.9
2018-07-03T05:16:59.504Z,32.1
2018-07-03T05:18:01.691Z,32
2018-07-03T05:19:04.138Z,32
2018-07-03T05:20:06.029Z,32
2018-07-03T05:21:08.493Z,32
2018-07-03T05:22:10.676Z,32
2018-07-03T05:23:12.849Z,32
2018-07-03T05:24:14.757Z,32
2018-07-03T05:25:16.928Z,31.9
2018-07-03T05:26:19.107Z,32
2018-07-03T05:27:20.480Z,31.9
2018-07-03T05:28:22.357Z,32
2018-07-03T05:29:24.268Z,31.9
2018-07-03T05:30:26.717Z,32
2018-07-03T05:31:29.409Z,32
2018-07-03T05:32:32.013Z,32
2018-07-03T05:33:34.489Z,32
2018-07-03T05:34:36.394Z,31.8
2018-07-03T05:35:38.842Z,32
2018-07-03T05:36:41.024Z,32
2018-07-03T05:37:43.207Z,32
2018-07-03T05:38:45.664Z,32
2018-07-03T05:39:47.842Z,31.9
2018-07-03T05:40:50.413Z,32
2018-07-03T05:41:52.319Z,32.1
2018-07-03T05:42:54.791Z,32
2018-07-03T05:43:56.793Z,31.8
2018-07-03T05:44:58.703Z,32
2018-07-03T05:46:00.878Z,31.9
2018-07-03T05:47:03.319Z,31.9
2018-07-03T05:48:05.774Z,32
2018-07-03T05:49:07.948Z,32
2018-07-03T05:50:10.136Z,32
2018-07-03T05:51:11.750Z,32
2018-07-03T05:52:13.930Z,31.9
2018-07-03T05:53:16.375Z,32.1
2018-07-03T05:54:18.821Z,32
2018-07-03T05:55:20.996Z,32
2018-07-03T05:56:22.963Z,31.9
2018-07-03T05:57:25.742Z,32
2018-07-03T05:58:27.908Z,32
2018-07-03T05:59:30.358Z,32.1
2018-07-03T06:00:33.030Z,31.9
2018-07-03T06:01:35.179Z,32
2018-07-03T06:02:37.629Z,32
2018-07-03T06:03:39.800Z,32
2018-07-03T06:04:42.204Z,32
2018-07-03T06:05:44.389Z,32
2018-07-03T06:06:46.281Z,32
2018-07-03T06:07:48.359Z,32
2018-07-03T06:08:50.979Z,31.9
2018-07-03T06:09:53.315Z,32
2018-07-03T06:10:55.482Z,31.9
2018-07-03T06:11:57.670Z,32
2018-07-03T06:13:00.240Z,31.8
2018-07-03T06:14:02.515Z,32
2018-07-03T06:15:05.006Z,32
2018-07-03T06:16:07.185Z,32
2018-07-03T06:17:09.637Z,31.9
2018-07-03T06:18:11.808Z,32
2018-07-03T06:19:13.980Z,32
2018-07-03T06:20:16.609Z,32
2018-07-03T06:21:18.796Z,32.1
2018-07-03T06:22:20.970Z,32
2018-07-03T06:23:23.426Z,31.9
2018-07-03T06:24:25.881Z,32
2018-07-03T06:25:28.040Z,32
2018-07-03T06:26:30.222Z,31.9
2018-07-03T06:27:32.679Z,32
2018-07-03T06:28:34.869Z,32
2018-07-03T06:29:37.323Z,31.9
2018-07-03T06:30:38.947Z,32
2018-07-03T06:31:40.811Z,32
2018-07-03T06:32:43.274Z,31.9
2018-07-03T06:33:45.731Z,31.9
2018-07-03T06:34:47.925Z,31.9
2018-07-03T06:35:50.102Z,31.9
2018-07-03T06:36:52.559Z,32
2018-07-03T06:37:54.738Z,32
2018-07-03T06:38:57.187Z,32
2018-07-03T06:39:59.600Z,32
2018-07-03T06:41:01.500Z,31.9
2018-07-03T06:42:03.669Z,32
2018-07-03T06:43:05.839Z,32
2018-07-03T06:44:08.280Z,31.9
2018-07-03T06:45:10.720Z,31.9
2018-07-03T06:46:12.889Z,32
2018-07-03T06:47:15.095Z,32
2018-07-03T06:48:17.334Z,31.9
2018-07-03T06:49:19.236Z,31.9
2018-07-03T06:50:21.678Z,32
2018-07-03T06:51:23.602Z,32
2018-07-03T06:52:26.042Z,32
2018-07-03T06:53:28.771Z,31.9
2018-07-03T06:54:30.946Z,32
2018-07-03T06:55:33.405Z,31.9
2018-07-03T06:56:35.869Z,31.9
2018-07-03T06:57:38.042Z,31.9
2018-07-03T06:58:40.499Z,31.9
2018-07-03T06:59:42.684Z,31.9
2018-07-03T07:00:45.131Z,31.9
2018-07-03T07:01:47.320Z,31.7
2018-07-03T07:02:49.761Z,32
2018-07-03T07:03:51.678Z,31.9
2018-07-03T07:04:54.131Z,31.9
2018-07-03T07:05:56.320Z,31.8
2018-07-03T07:06:58.508Z,31.9
2018-07-03T07:08:00.706Z,31.9
2018-07-03T07:09:02.779Z,31.9
2018-07-03T07:10:05.869Z,31.9
2018-07-03T07:11:08.059Z,31.9
2018-07-03T07:12:10.231Z,31.9
2018-07-03T07:13:12.392Z,31.9
2018-07-03T07:14:14.279Z,31.9
2018-07-03T07:15:16.450Z,32
2018-07-03T07:16:18.891Z,31.9
2018-07-03T07:17:21.335Z,32
2018-07-03T07:18:23.790Z,31.9
2018-07-03T07:19:25.974Z,32
2018-07-03T07:20:28.167Z,31.9
2018-07-03T07:21:29.760Z,31.9
2018-07-03T07:22:32.234Z,32
2018-07-03T07:23:34.140Z,31.9
2018-07-03T07:24:36.583Z,32
2018-07-03T07:25:38.736Z,32
2018-07-03T07:26:41.210Z,32
2018-07-03T07:27:43.651Z,31.8
2018-07-03T07:28:46.091Z,31.9
2018-07-03T07:29:48.242Z,31.9
2018-07-03T07:30:50.423Z,32
2018-07-03T07:31:52.875Z,31.9
2018-07-03T07:32:55.031Z,31.9
2018-07-03T07:33:56.935Z,31.8
2018-07-03T07:34:59.099Z,31.8
2018-07-03T07:36:01.663Z,31.9
2018-07-03T07:37:03.910Z,32
2018-07-03T07:38:06.080Z,31.9
2018-07-03T07:39:08.532Z,31.9
2018-07-03T07:40:10.969Z,32
2018-07-03T07:41:12.879Z,32
2018-07-03T07:42:15.062Z,31.8
2018-07-03T07:43:17.251Z,31.9
2018-07-03T07:44:19.691Z,31.8
2018-07-03T07:45:21.859Z,31.9
2018-07-03T07:46:24.315Z,32
2018-07-03T07:47:27.809Z,31.8
2018-07-03T07:48:29.715Z,32
2018-07-03T07:49:32.160Z,31.8
2018-07-03T07:50:34.602Z,32
2018-07-03T07:51:36.769Z,31.9
2018-07-03T07:52:38.947Z,31.9
2018-07-03T07:53:40.853Z,32
2018-07-03T07:54:43.301Z,31.9
2018-07-03T07:55:45.759Z,31.8
2018-07-03T07:56:48.220Z,31.8
2018-07-03T07:57:50.401Z,31.8
2018-07-03T07:58:52.581Z,31.8
2018-07-03T07:59:55.019Z,31.8
2018-07-03T08:00:57.474Z,31.8
2018-07-03T08:01:59.926Z,31.9
2018-07-03T08:03:02.363Z,32
2018-07-03T08:04:04.581Z,31.9
2018-07-03T08:05:07.020Z,31.7
2018-07-03T08:06:09.482Z,31.9
2018-07-03T08:07:11.929Z,31.9
2018-07-03T08:08:14.150Z,31.8
2018-07-03T08:09:16.059Z,31.8
2018-07-03T08:10:18.211Z,31.7
2018-07-03T08:11:20.664Z,32
2018-07-03T08:12:23.109Z,31.9
2018-07-03T08:13:25.326Z,31.8
2018-07-03T08:14:28.059Z,31.8
2018-07-03T08:15:29.669Z,31.6
2018-07-03T08:16:31.843Z,32
2018-07-03T08:17:34.041Z,31.7
2018-07-03T08:18:36.226Z,31.9
2018-07-03T08:19:38.148Z,31.9
2018-07-03T08:20:40.609Z,31.9
2018-07-03T08:21:42.777Z,31.8
2018-07-03T08:22:44.694Z,31.9
2018-07-03T08:23:46.856Z,31.9
2018-07-03T08:24:49.047Z,31.8
2018-07-03T08:25:51.218Z,31.8
2018-07-03T08:26:53.406Z,31.8
2018-07-03T08:27:55.568Z,31.9
2018-07-03T08:28:57.716Z,31.8
2018-07-03T08:29:59.881Z,31.7
2018-07-03T08:31:02.057Z,31.7
2018-07-03T08:32:03.673Z,31.8
2018-07-03T08:33:05.851Z,31.8
2018-07-03T08:34:08.128Z,31.9
2018-07-03T08:35:10.982Z,31.9
2018-07-03T08:36:13.432Z,31.9
2018-07-03T08:37:15.363Z,31.9
2018-07-03T08:38:17.528Z,31.9
2018-07-03T08:39:19.971Z,32
2018-07-03T08:40:22.420Z,31.9
2018-07-03T08:41:24.599Z,31.9
2018-07-03T08:42:27.045Z,31.8
2018-07-03T08:43:29.229Z,32
2018-07-03T08:44:31.683Z,31.9
2018-07-03T08:45:33.865Z,31.8
2018-07-03T08:46:36.315Z,31.9
2018-07-03T08:47:38.764Z,31.9
2018-07-03T08:48:40.674Z,31.9
2018-07-03T08:49:43.119Z,31.9
2018-07-03T08:50:44.997Z,31.9
2018-07-03T08:51:47.648Z,31.9
2018-07-03T08:52:50.645Z,32
2018-07-03T08:53:52.806Z,31.9
2018-07-03T08:54:54.975Z,31.9
2018-07-03T08:55:57.150Z,31.8
2018-07-03T08:56:59.352Z,32
2018-07-03T08:58:01.528Z,31.9
2018-07-03T08:59:03.699Z,31.9
2018-07-03T09:00:06.156Z,31.9
2018-07-03T09:01:08.588Z,32
2018-07-03T09:02:11.035Z,31.9
2018-07-03T09:03:13.483Z,31.9
2018-07-03T09:04:15.941Z,31.8
2018-07-03T09:05:17.852Z,31.9
2018-07-03T09:06:20.310Z,32
2018-07-03T09:07:22.500Z,31.9
2018-07-03T09:08:24.946Z,31.7
2018-07-03T09:09:27.118Z,32
2018-07-03T09:10:29.025Z,32
2018-07-03T09:11:31.535Z,32
2018-07-03T09:12:33.785Z,32
2018-07-03T09:13:36.242Z,32
2018-07-03T09:14:38.421Z,31.9
2018-07-03T09:15:40.885Z,31.8
2018-07-03T09:16:43.327Z,32
2018-07-03T09:17:45.769Z,31.9
2018-07-03T09:18:47.957Z,32
2018-07-03T09:19:50.155Z,31.9
2018-07-03T09:20:52.069Z,32
2018-07-03T09:21:54.248Z,32
2018-07-03T09:22:56.706Z,32
2018-07-03T09:23:59.160Z,31.9
2018-07-03T09:25:01.344Z,32
2018-07-03T09:26:03.784Z,32
2018-07-03T09:27:06.229Z,32
2018-07-03T09:28:08.673Z,32
2018-07-03T09:29:10.853Z,32
2018-07-03T09:30:12.745Z,32
2018-07-03T09:31:14.899Z,31.9
2018-07-03T09:32:17.344Z,32.1
2018-07-03T09:33:19.802Z,31.9
2018-07-03T09:34:21.954Z,32
2018-07-03T09:35:24.429Z,32
2018-07-03T09:36:26.709Z,32
2018-07-03T09:37:29.059Z,31.9
2018-07-03T09:38:31.228Z,32
2018-07-03T09:39:33.424Z,31.9
2018-07-03T09:40:35.610Z,32
2018-07-03T09:41:37.785Z,32
2018-07-03T09:42:39.952Z,32
2018-07-03T09:43:42.399Z,32
2018-07-03T09:44:44.847Z,32
2018-07-03T09:45:47.304Z,32
2018-07-03T09:46:49.754Z,32
2018-07-03T09:47:52.208Z,32
2018-07-03T09:48:54.813Z,31.9
2018-07-03T09:49:57.490Z,32
2018-07-03T09:50:59.948Z,32.1
2018-07-03T09:52:01.599Z,32
2018-07-03T09:53:04.040Z,32
2018-07-03T09:54:06.232Z,32
2018-07-03T09:55:08.412Z,32
2018-07-03T09:56:10.855Z,32
2018-07-03T09:57:13.019Z,32
2018-07-03T09:58:15.169Z,32
2018-07-03T09:59:17.078Z,32
2018-07-03T10:00:19.250Z,32
2018-07-03T10:01:21.699Z,32
2018-07-03T10:02:23.888Z,32
2018-07-03T10:03:26.093Z,32.1
2018-07-03T10:04:27.989Z,32.1
2018-07-03T10:05:29.891Z,32
2018-07-03T10:06:32.333Z,32.1
2018-07-03T10:07:34.544Z,31.9
2018-07-03T10:08:36.179Z,32
2018-07-03T10:09:38.528Z,32
2018-07-03T10:10:40.143Z,32
2018-07-03T10:11:42.332Z,32
2018-07-03T10:12:44.783Z,32
2018-07-03T10:13:47.229Z,32
2018-07-03T10:14:49.401Z,32.1
2018-07-03T10:15:51.867Z,32
2018-07-03T10:16:54.309Z,32.1
2018-07-03T10:17:56.201Z,32
2018-07-03T10:18:58.769Z,32
2018-07-03T10:20:00.697Z,32
2018-07-03T10:21:03.156Z,32
2018-07-03T10:22:05.604Z,32
2018-07-03T10:23:07.771Z,32
2018-07-03T10:24:10.220Z,32.1
2018-07-03T10:25:12.679Z,32
2018-07-03T10:26:14.595Z,32
2018-07-03T10:27:16.484Z,31.9
2018-07-03T10:28:18.358Z,32.1
2018-07-03T10:29:20.537Z,32
2018-07-03T10:30:22.988Z,31.9
2018-07-03T10:31:25.056Z,32
2018-07-03T10:32:27.737Z,32
2018-07-03T10:33:30.193Z,32
2018-07-03T10:34:32.645Z,32
2018-07-03T10:35:35.100Z,32
2018-07-03T10:36:37.014Z,32.1
2018-07-03T10:37:39.160Z,32
2018-07-03T10:38:41.594Z,32
2018-07-03T10:39:43.216Z,32
2018-07-03T10:40:45.664Z,32.1
2018-07-03T10:41:48.137Z,32.1
2018-07-03T10:42:50.585Z,31.9
2018-07-03T10:43:52.497Z,32
2018-07-03T10:44:54.681Z,32
2018-07-03T10:45:56.894Z,32.1
2018-07-03T10:46:59.330Z,32.1
2018-07-03T10:48:01.519Z,32
2018-07-03T10:49:03.693Z,32
2018-07-03T10:50:06.182Z,32
2018-07-03T10:51:08.626Z,32
2018-07-03T10:52:11.085Z,32.1
2018-07-03T10:53:13.541Z,32.1
2018-07-03T10:54:15.173Z,32.1
2018-07-03T10:55:17.619Z,32.1
2018-07-03T10:56:20.062Z,32.1
2018-07-03T10:57:21.979Z,32
2018-07-03T10:58:24.432Z,32
2018-07-03T10:59:26.914Z,32
2018-07-03T11:00:28.778Z,32
2018-07-03T11:01:30.955Z,32
2018-07-03T11:02:33.414Z,32
2018-07-03T11:03:35.601Z,32
2018-07-03T11:04:38.042Z,31.9
2018-07-03T11:05:40.220Z,32
2018-07-03T11:06:42.823Z,32.1
2018-07-03T11:07:44.729Z,32
2018-07-03T11:08:47.167Z,32
2018-07-03T11:09:49.057Z,32
2018-07-03T11:10:51.506Z,31.9
2018-07-03T11:11:53.688Z,32
2018-07-03T11:12:56.151Z,31.9
2018-07-03T11:13:58.765Z,32
2018-07-03T11:15:01.732Z,32.1
2018-07-03T11:16:03.930Z,32
2018-07-03T11:17:06.093Z,32
2018-07-03T11:18:08.530Z,32
2018-07-03T11:19:10.982Z,32
2018-07-03T11:20:13.816Z,32
2018-07-03T11:21:16.269Z,32
2018-07-03T11:22:18.461Z,32
2018-07-03T11:23:20.380Z,32
2018-07-03T11:24:22.560Z,32
2018-07-03T11:25:25.023Z,32
2018-07-03T11:26:26.943Z,32
2018-07-03T11:27:28.825Z,32
2018-07-03T11:28:30.709Z,32
2018-07-03T11:29:33.192Z,32
2018-07-03T11:30:35.643Z,32.1
2018-07-03T11:31:38.098Z,32
2018-07-03T11:32:40.269Z,32.2
2018-07-03T11:33:42.775Z,32
2018-07-03T11:34:44.776Z,32.1
2018-07-03T11:35:46.929Z,32
2018-07-03T11:36:49.376Z,32
2018-07-03T11:37:51.570Z,32
2018-07-03T11:38:53.439Z,32
2018-07-03T11:39:55.876Z,32
2018-07-03T11:40:57.798Z,32
2018-07-03T11:41:59.977Z,32
2018-07-03T11:43:02.566Z,32
2018-07-03T11:44:04.533Z,31.9
2018-07-03T11:45:06.722Z,32.1
2018-07-03T11:46:08.869Z,32.1
2018-07-03T11:47:11.051Z,32
2018-07-03T11:48:12.926Z,32
2018-07-03T11:49:15.375Z,32
2018-07-03T11:50:17.839Z,32
2018-07-03T11:51:20.306Z,31.9
2018-07-03T11:52:22.768Z,32
2018-07-03T11:53:24.952Z,31.9
2018-07-03T11:54:26.868Z,31.9
2018-07-03T11:55:29.048Z,32
2018-07-03T11:56:31.505Z,32
2018-07-03T11:57:33.401Z,32
2018-07-03T11:58:35.319Z,32
2018-07-03T11:59:37.785Z,32
2018-07-03T12:00:40.232Z,32
2018-07-03T12:01:42.763Z,32.1
2018-07-03T12:02:45.438Z,32.1
2018-07-03T12:03:47.593Z,32
2018-07-03T12:04:50.054Z,32
2018-07-03T12:05:52.224Z,32
2018-07-03T12:06:54.684Z,31.9
2018-07-03T12:07:57.152Z,32.1
2018-07-03T12:08:59.312Z,31.9
2018-07-03T12:10:01.769Z,32
2018-07-03T12:11:03.958Z,32
2018-07-03T12:12:06.412Z,32.1
2018-07-03T12:13:08.584Z,32
2018-07-03T12:14:10.769Z,31.9
2018-07-03T12:15:12.681Z,32
2018-07-03T12:16:14.568Z,32
2018-07-03T12:17:17.019Z,32
2018-07-03T12:18:19.516Z,32
2018-07-03T12:19:21.956Z,32
2018-07-03T12:20:23.837Z,32.1
2018-07-03T12:21:25.489Z,32
2018-07-03T12:22:27.937Z,32
2018-07-03T12:23:30.389Z,32
2018-07-03T12:24:32.310Z,32
2018-07-03T12:25:34.776Z,32
2018-07-03T12:26:36.936Z,32
2018-07-03T12:27:39.390Z,32
2018-07-03T12:28:41.576Z,31.9
2018-07-03T12:29:44.050Z,32
2018-07-03T12:30:46.196Z,32.1
2018-07-03T12:31:48.637Z,32
2018-07-03T12:32:50.799Z,32.1
2018-07-03T12:33:52.958Z,31.9
2018-07-03T12:34:55.423Z,32
2018-07-03T12:35:57.893Z,32
2018-07-03T12:37:00.382Z,32
2018-07-03T12:38:02.568Z,32
2018-07-03T12:39:04.743Z,32.1
2018-07-03T12:40:06.376Z,32
2018-07-03T12:41:08.527Z,32
2018-07-03T12:42:11.016Z,32.1
2018-07-03T12:43:13.462Z,32
2018-07-03T12:44:15.914Z,32.1
2018-07-03T12:45:18.082Z,32
2018-07-03T12:46:19.732Z,32
2018-07-03T12:47:21.917Z,31.9
2018-07-03T12:48:23.832Z,32
2018-07-03T12:49:26.280Z,32.1
2018-07-03T12:50:28.442Z,32
2018-07-03T12:51:30.082Z,32.1
2018-07-03T12:52:32.546Z,32.1
2018-07-03T12:53:34.458Z,32
2018-07-03T12:54:36.903Z,32.1
2018-07-03T12:55:39.110Z,32.1
2018-07-03T12:56:41.559Z,32
2018-07-03T12:57:43.753Z,32.1
2018-07-03T12:58:46.250Z,32.1
2018-07-03T12:59:48.717Z,32
2018-07-03T13:00:51.171Z,32
2018-07-03T13:01:53.342Z,31.9
2018-07-03T13:02:55.248Z,32
2018-07-03T13:03:57.709Z,32.1
2018-07-03T13:04:59.908Z,32.1
2018-07-03T13:06:02.446Z,32
2018-07-03T13:07:04.896Z,32
2018-07-03T13:08:06.862Z,32
2018-07-03T13:09:09.668Z,32
2018-07-03T13:10:11.568Z,32.1
2018-07-03T13:11:14.024Z,32.1
2018-07-03T13:12:15.923Z,31.9
2018-07-03T13:13:18.098Z,32
2018-07-03T13:14:20.293Z,32.1
2018-07-03T13:15:22.459Z,32.1
2018-07-03T13:16:24.078Z,32
2018-07-03T13:17:26.523Z,32.1
2018-07-03T13:18:28.434Z,32.1
2018-07-03T13:19:30.910Z,32.1
2018-07-03T13:20:33.364Z,32
2018-07-03T13:21:35.291Z,32.1
2018-07-03T13:22:37.755Z,32.1
2018-07-03T13:23:39.911Z,32
2018-07-03T13:24:41.818Z,32
2018-07-03T13:25:44.021Z,32
2018-07-03T13:26:46.218Z,32.1
2018-07-03T13:27:48.669Z,32
2018-07-03T13:28:51.111Z,32
2018-07-03T13:29:53.711Z,32
2018-07-03T13:30:55.736Z,32.1
2018-07-03T13:31:57.648Z,32
2018-07-03T13:32:59.829Z,32.1
2018-07-03T13:34:02.001Z,32.1
2018-07-03T13:35:04.176Z,32
2018-07-03T13:36:06.378Z,32.1
2018-07-03T13:37:08.913Z,32
2018-07-03T13:38:11.152Z,32.1
2018-07-03T13:39:13.602Z,32
2018-07-03T13:40:15.768Z,32
2018-07-03T13:41:17.972Z,32.1
2018-07-03T13:42:20.418Z,32.2
2018-07-03T13:43:22.595Z,32
2018-07-03T13:44:24.790Z,32.1
2018-07-03T13:45:26.968Z,32
2018-07-03T13:46:29.429Z,32.1
2018-07-03T13:47:31.600Z,32.1
2018-07-03T13:48:34.061Z,32.1
2018-07-03T13:49:36.509Z,32.1
2018-07-03T13:50:38.698Z,32.1
2018-07-03T13:51:41.138Z,32.1
2018-07-03T13:52:43.301Z,32.1
2018-07-03T13:53:45.762Z,32.1
2018-07-03T13:54:47.956Z,32
2018-07-03T13:55:49.622Z,32
2018-07-03T13:56:51.798Z,32
2018-07-03T13:57:53.971Z,32.1
2018-07-03T13:58:56.444Z,32.1
2018-07-03T13:59:58.878Z,32
2018-07-03T14:01:01.322Z,32
2018-07-03T14:02:03.514Z,32.3
2018-07-03T14:03:05.965Z,32.1
2018-07-03T14:04:08.133Z,32
2018-07-03T14:05:10.009Z,32.1
2018-07-03T14:06:12.453Z,32.2
2018-07-03T14:07:14.922Z,32.1
2018-07-03T14:08:17.098Z,32.1
2018-07-03T14:09:19.266Z,32.1
2018-07-03T14:10:21.467Z,32.1